Time;durP1;ratioP1;P1;durP2;ratioP2;P2;SDS_P1;SDS_P2;PMS_P1;PMS_P2;Temp;Humidity;BMP_temperature;BMP_pressure;BME280_temperature;BME280_humidity;BME280_pressure;Samples;Min_cycle;Max_cycle;Signal;HPM_P1;HPM_P2
2021/11/18 00:00:21;;;;;;;;;;;6.60;99.90;;;;;;5086852;28;20329;-75
2021/11/18 00:02:48;;;;;;;;;;;6.60;99.90;;;;;;5094400;28;19978;-75
2021/11/18 00:05:15;;;;;;;;;;;6.60;99.90;;;;;;5097545;28;19916;-75
2021/11/18 00:07:42;;;;;;;;;;;6.60;99.90;;;;;;5088610;28;19928;-76
2021/11/18 00:10:08;;;;;;;;;;;6.50;99.90;;;;;;5092438;28;19916;-76
2021/11/18 00:12:33;;;;;;;;;;;6.50;99.90;;;;;;5095088;28;19912;-76
2021/11/18 00:14:59;;;;;;;;;;;6.50;99.90;;;;;;5097897;28;19918;-75
2021/11/18 00:17:24;;;;;;;;;;;6.50;99.90;;;;;;5091846;28;20002;-76
2021/11/18 00:19:50;;;;;;;;;;;6.50;99.90;;;;;;5097621;28;19913;-76
2021/11/18 00:22:16;;;;;;;;;;;6.50;99.90;;;;;;5097716;28;20210;-76
2021/11/18 00:24:42;;;;;;;;;;;6.50;99.90;;;;;;5097993;28;19920;-76
2021/11/18 00:27:08;;;;;;;;;;;6.50;99.90;;;;;;5096970;28;19945;-75
2021/11/18 00:29:33;;;;;;;;;;;6.40;99.90;;;;;;5094955;28;19912;-76
2021/11/18 00:31:59;;;;;;;;;;;6.50;99.90;;;;;;5096830;28;20217;-75
2021/11/18 00:34:24;;;;;;;;;;;6.40;99.90;;;;;;5096066;28;19916;-75
2021/11/18 00:36:50;;;;;;;;;;;6.40;99.90;;;;;;5096696;28;19934;-75
2021/11/18 00:39:16;;;;;;;;;;;6.50;99.90;;;;;;5094380;28;20011;-85
2021/11/18 00:41:42;;;;;;;;;;;6.50;99.90;;;;;;5096517;28;20294;-76
2021/11/18 00:44:07;;;;;;;;;;;6.50;99.90;;;;;;5090409;28;19916;-76
2021/11/18 00:46:33;;;;;;;;;;;6.50;99.90;;;;;;5090296;28;19967;-76
2021/11/18 00:49:00;;;;;;;;;;;6.60;99.90;;;;;;5094200;28;19916;-76
2021/11/18 00:51:25;;;;;;;;;;;6.60;99.90;;;;;;5095421;28;19976;-76
2021/11/18 00:53:54;;;;;;;;;;;6.60;99.90;;;;;;5090141;28;20014;-76
2021/11/18 00:56:21;;;;;;;;;;;6.70;99.90;;;;;;5089340;28;19912;-88
2021/11/18 00:58:47;;;;;;;;;;;6.60;99.90;;;;;;5088346;28;19919;-75
2021/11/18 01:01:14;;;;;;;;;;;6.60;99.90;;;;;;5075243;28;19916;-75
2021/11/18 01:03:40;;;;;;;;;;;6.60;99.90;;;;;;5094143;28;19919;-76
2021/11/18 01:06:05;;;;;;;;;;;6.60;99.90;;;;;;5085001;28;19920;-76
2021/11/18 01:08:31;;;;;;;;;;;6.60;99.90;;;;;;5095352;28;20437;-76
2021/11/18 01:10:59;;;;;;;;;;;6.60;99.90;;;;;;5094327;28;19965;-86
2021/11/18 01:13:25;;;;;;;;;;;6.50;99.90;;;;;;5094028;28;19923;-77
2021/11/18 01:15:51;;;;;;;;;;;6.50;99.90;;;;;;5089588;28;19912;-76
2021/11/18 01:18:17;;;;;;;;;;;6.50;99.90;;;;;;5095304;28;19943;-76
2021/11/18 01:20:44;;;;;;;;;;;6.50;99.90;;;;;;5088174;28;19923;-77
2021/11/18 01:23:15;;;;;;;;;;;6.50;99.90;;;;;;5086703;28;19913;-76
2021/11/18 01:25:41;;;;;;;;;;;6.50;99.90;;;;;;5092483;28;19960;-76
2021/11/18 01:28:08;;;;;;;;;;;6.50;99.90;;;;;;5089120;28;20274;-77
2021/11/18 01:30:34;;;;;;;;;;;6.60;99.90;;;;;;5109893;28;19924;-87
2021/11/18 01:33:00;;;;;;;;;;;6.60;99.90;;;;;;5091747;28;19998;-75
2021/11/18 01:35:26;;;;;;;;;;;6.60;99.90;;;;;;5094109;28;19918;-76
2021/11/18 01:37:52;;;;;;;;;;;6.60;99.90;;;;;;4984980;28;3035280;-76
2021/11/18 01:40:20;;;;;;;;;;;6.70;99.90;;;;;;5089858;28;19923;-76
2021/11/18 01:42:47;;;;;;;;;;;6.70;99.90;;;;;;5095358;28;19916;-76
2021/11/18 01:45:13;;;;;;;;;;;6.80;99.90;;;;;;5093205;28;19912;-76
2021/11/18 01:47:39;;;;;;;;;;;6.80;99.90;;;;;;5095140;28;19947;-76
2021/11/18 01:50:13;;;;;;;;;;;6.80;99.90;;;;;;5093812;28;19922;-76
2021/11/18 01:52:39;;;;;;;;;;;6.90;99.90;;;;;;5093529;28;19939;-76
2021/11/18 01:55:05;;;;;;;;;;;6.90;99.90;;;;;;5108663;28;19916;-78
2021/11/18 01:57:34;;;;;;;;;;;6.90;99.90;;;;;;5095826;28;19916;-75
2021/11/18 02:00:00;;;;;;;;;;;7.00;99.90;;;;;;5090197;28;19962;-76
2021/11/18 02:02:27;;;;;;;;;;;7.00;99.90;;;;;;5095103;28;20034;-75
2021/11/18 02:04:56;;;;;;;;;;;7.00;99.90;;;;;;5081945;28;19916;-76
2021/11/18 02:07:21;;;;;;;;;;;7.00;99.90;;;;;;5084562;28;19973;-76
2021/11/18 02:09:49;;;;;;;;;;;7.00;99.90;;;;;;5088544;28;19916;-76
2021/11/18 02:12:16;;;;;;;;;;;7.10;99.90;;;;;;5088905;28;20279;-76
2021/11/18 02:14:42;;;;;;;;;;;7.10;99.90;;;;;;5094425;28;19958;-76
2021/11/18 02:17:09;;;;;;;;;;;7.00;99.90;;;;;;5091452;28;20083;-76
2021/11/18 02:19:36;;;;;;;;;;;7.10;99.90;;;;;;5092483;28;20023;-76
2021/11/18 02:22:02;;;;;;;;;;;7.00;99.90;;;;;;5093838;28;19924;-75
2021/11/18 02:24:30;;;;;;;;;;;7.00;99.90;;;;;;5093843;28;20302;-76
2021/11/18 02:26:56;;;;;;;;;;;7.10;99.90;;;;;;5108701;28;20203;-76
2021/11/18 02:29:22;;;;;;;;;;;7.10;99.90;;;;;;5094778;28;20011;-76
2021/11/18 02:31:47;;;;;;;;;;;7.10;99.90;;;;;;5091211;28;19919;-76
2021/11/18 02:34:15;;;;;;;;;;;7.00;99.90;;;;;;5094159;28;19920;-76
2021/11/18 02:36:41;;;;;;;;;;;7.10;99.90;;;;;;5106475;28;19931;-82
2021/11/18 02:39:07;;;;;;;;;;;7.10;99.90;;;;;;5093690;28;19951;-77
2021/11/18 02:41:33;;;;;;;;;;;7.10;99.90;;;;;;5093995;28;19973;-76
2021/11/18 02:43:58;;;;;;;;;;;7.10;99.90;;;;;;5093303;28;19912;-76
2021/11/18 02:46:24;;;;;;;;;;;7.10;99.90;;;;;;5095145;28;19920;-86
2021/11/18 02:48:50;;;;;;;;;;;7.10;99.90;;;;;;5093485;28;19999;-76
2021/11/18 02:51:16;;;;;;;;;;;7.10;99.90;;;;;;5088873;28;20316;-76
2021/11/18 02:53:42;;;;;;;;;;;7.10;99.90;;;;;;5095229;28;19919;-77
2021/11/18 02:56:08;;;;;;;;;;;7.20;99.90;;;;;;5088392;28;19916;-76
2021/11/18 02:58:34;;;;;;;;;;;7.10;99.90;;;;;;5092728;28;19916;-77
2021/11/18 03:01:03;;;;;;;;;;;7.20;99.90;;;;;;5093177;28;19918;-76
2021/11/18 03:03:28;;;;;;;;;;;7.20;99.90;;;;;;5089296;28;19920;-77
2021/11/18 03:05:55;;;;;;;;;;;7.20;99.90;;;;;;5090223;28;19923;-77
2021/11/18 03:08:22;;;;;;;;;;;7.20;99.90;;;;;;5082708;28;19927;-76
2021/11/18 03:10:48;;;;;;;;;;;7.20;99.90;;;;;;5090462;28;19923;-76
2021/11/18 03:13:15;;;;;;;;;;;7.20;99.90;;;;;;5091791;28;19931;-77
2021/11/18 03:15:40;;;;;;;;;;;7.30;99.90;;;;;;5080061;28;20007;-76
2021/11/18 03:18:06;;;;;;;;;;;7.30;99.90;;;;;;5091732;28;20275;-76
2021/11/18 03:20:34;;;;;;;;;;;7.30;99.90;;;;;;5088934;28;20214;-86
2021/11/18 03:22:59;;;;;;;;;;;7.30;99.90;;;;;;5096284;28;19947;-77
2021/11/18 03:25:28;;;;;;;;;;;7.30;99.90;;;;;;5090808;28;20281;-76
2021/11/18 03:27:54;;;;;;;;;;;7.30;99.90;;;;;;5088080;28;19916;-77
2021/11/18 03:30:24;;;;;;;;;;;7.30;99.90;;;;;;5085894;28;19927;-76
2021/11/18 03:32:54;;;;;;;;;;;7.30;99.90;;;;;;5094666;28;19912;-76
2021/11/18 03:35:20;;;;;;;;;;;7.40;99.90;;;;;;5088779;28;20289;-76
2021/11/18 03:37:46;;;;;;;;;;;7.30;99.90;;;;;;5092652;28;20280;-78
2021/11/18 03:40:12;;;;;;;;;;;7.40;99.90;;;;;;5085753;28;19912;-76
2021/11/18 03:42:38;;;;;;;;;;;7.40;99.90;;;;;;5093184;28;20226;-76
2021/11/18 03:45:05;;;;;;;;;;;7.40;99.90;;;;;;5094226;28;19920;-77
2021/11/18 03:47:31;;;;;;;;;;;7.40;99.90;;;;;;5107725;28;19920;-76
2021/11/18 03:49:57;;;;;;;;;;;7.40;99.90;;;;;;5094551;28;20112;-76
2021/11/18 03:52:23;;;;;;;;;;;7.50;99.90;;;;;;5070478;28;19928;-76
2021/11/18 03:54:49;;;;;;;;;;;7.40;99.90;;;;;;5084805;28;20200;-76
2021/11/18 03:57:15;;;;;;;;;;;7.50;99.90;;;;;;5092671;28;19916;-76
2021/11/18 03:59:42;;;;;;;;;;;7.40;99.90;;;;;;5093015;28;19920;-86
2021/11/18 04:02:08;;;;;;;;;;;7.50;99.90;;;;;;5085204;28;19916;-77
2021/11/18 04:04:38;;;;;;;;;;;7.50;99.90;;;;;;5093703;28;19908;-76
2021/11/18 04:07:05;;;;;;;;;;;7.40;99.90;;;;;;5092923;28;20007;-86
2021/11/18 04:09:31;;;;;;;;;;;7.50;99.90;;;;;;5091655;28;19952;-76
2021/11/18 04:12:00;;;;;;;;;;;7.50;99.90;;;;;;5091989;28;20214;-76
2021/11/18 04:14:27;;;;;;;;;;;7.40;99.90;;;;;;5093132;28;19957;-76
2021/11/18 04:16:52;;;;;;;;;;;7.50;99.90;;;;;;5081471;28;19920;-76
2021/11/18 04:19:18;;;;;;;;;;;7.50;99.90;;;;;;5082349;28;19934;-76
2021/11/18 04:21:45;;;;;;;;;;;7.50;99.90;;;;;;5094501;28;20309;-76
2021/11/18 04:24:12;;;;;;;;;;;7.50;99.90;;;;;;5090827;28;20298;-87
2021/11/18 04:26:38;;;;;;;;;;;7.50;99.90;;;;;;5090740;28;19915;-76
2021/11/18 04:29:04;;;;;;;;;;;7.50;99.90;;;;;;5093758;28;19961;-77
2021/11/18 04:31:30;;;;;;;;;;;7.50;99.90;;;;;;5094942;28;20011;-76
2021/11/18 04:33:56;;;;;;;;;;;7.50;99.90;;;;;;5096719;28;19938;-77
2021/11/18 04:36:22;;;;;;;;;;;7.50;99.90;;;;;;5097413;28;20022;-76
2021/11/18 04:38:48;;;;;;;;;;;7.50;99.90;;;;;;5095153;28;19924;-77
2021/11/18 04:41:14;;;;;;;;;;;7.50;99.90;;;;;;5097063;28;19920;-81
2021/11/18 04:43:41;;;;;;;;;;;7.50;99.90;;;;;;5092616;28;20010;-76
2021/11/18 04:46:09;;;;;;;;;;;7.50;99.90;;;;;;5097184;28;19935;-76
2021/11/18 04:48:39;;;;;;;;;;;7.60;99.90;;;;;;5093190;28;19986;-75
2021/11/18 04:51:05;;;;;;;;;;;7.60;99.90;;;;;;5093733;28;19964;-76
2021/11/18 04:53:31;;;;;;;;;;;7.60;99.90;;;;;;5095235;28;19912;-76
2021/11/18 04:55:57;;;;;;;;;;;7.60;99.90;;;;;;5095786;28;19912;-75
2021/11/18 04:58:23;;;;;;;;;;;7.60;99.90;;;;;;5096781;28;19916;-83
2021/11/18 05:00:50;;;;;;;;;;;7.60;99.90;;;;;;5113070;28;19955;-76
2021/11/18 05:03:16;;;;;;;;;;;7.60;99.90;;;;;;5095846;28;19965;-76
2021/11/18 05:05:42;;;;;;;;;;;7.70;99.90;;;;;;5088935;28;19913;-76
2021/11/18 05:08:08;;;;;;;;;;;7.60;99.90;;;;;;5090749;28;20234;-76
2021/11/18 05:10:34;;;;;;;;;;;7.70;99.90;;;;;;5094853;28;19966;-76
2021/11/18 05:12:59;;;;;;;;;;;7.70;99.90;;;;;;5090530;28;20222;-85
2021/11/18 05:15:29;;;;;;;;;;;7.70;99.90;;;;;;5089894;28;19913;-84
2021/11/18 05:17:55;;;;;;;;;;;7.70;99.90;;;;;;5063670;28;19920;-76
2021/11/18 05:20:21;;;;;;;;;;;7.70;99.90;;;;;;5095482;28;19939;-76
2021/11/18 05:22:47;;;;;;;;;;;7.70;99.90;;;;;;5090861;28;19920;-76
2021/11/18 05:25:13;;;;;;;;;;;7.70;99.90;;;;;;5093931;28;20407;-76
2021/11/18 05:27:39;;;;;;;;;;;7.70;99.90;;;;;;5084118;28;19916;-75
2021/11/18 05:30:05;;;;;;;;;;;7.80;99.90;;;;;;5087146;28;19916;-81
2021/11/18 05:32:31;;;;;;;;;;;7.70;99.90;;;;;;5095748;28;19928;-83
2021/11/18 05:34:58;;;;;;;;;;;7.80;99.90;;;;;;5096290;28;20214;-76
2021/11/18 05:37:24;;;;;;;;;;;7.80;99.90;;;;;;5087812;28;19916;-76
2021/11/18 05:39:49;;;;;;;;;;;7.70;99.90;;;;;;5089281;28;20214;-75
2021/11/18 05:42:15;;;;;;;;;;;7.80;99.90;;;;;;5089993;28;20310;-77
2021/11/18 05:44:41;;;;;;;;;;;7.80;99.90;;;;;;5095140;28;19922;-76
2021/11/18 05:47:07;;;;;;;;;;;7.70;99.90;;;;;;5094653;28;19919;-77
2021/11/18 05:49:32;;;;;;;;;;;7.80;99.90;;;;;;5092479;28;19916;-76
2021/11/18 05:51:58;;;;;;;;;;;7.80;99.90;;;;;;5093365;28;20207;-76
2021/11/18 05:54:24;;;;;;;;;;;7.80;99.90;;;;;;5094306;28;19935;-76
2021/11/18 05:56:49;;;;;;;;;;;7.80;99.90;;;;;;5094164;28;20043;-76
2021/11/18 05:59:15;;;;;;;;;;;7.80;99.90;;;;;;5093761;28;20390;-76
2021/11/18 06:01:41;;;;;;;;;;;7.80;99.90;;;;;;5091817;28;19923;-76
2021/11/18 06:04:06;;;;;;;;;;;7.70;99.90;;;;;;5094185;28;20307;-76
2021/11/18 06:06:32;;;;;;;;;;;7.70;99.90;;;;;;5092306;28;19918;-76
2021/11/18 06:09:02;;;;;;;;;;;7.60;99.90;;;;;;5094826;28;19920;-76
2021/11/18 06:11:32;;;;;;;;;;;7.60;99.90;;;;;;5092268;28;20310;-76
2021/11/18 06:13:58;;;;;;;;;;;7.70;99.90;;;;;;5093714;28;20322;-76
2021/11/18 06:16:26;;;;;;;;;;;7.60;99.90;;;;;;5094005;28;19954;-85
2021/11/18 06:18:53;;;;;;;;;;;7.60;99.90;;;;;;5091893;28;20584;-76
2021/11/18 06:21:19;;;;;;;;;;;7.50;99.90;;;;;;5091417;28;20015;-75
2021/11/18 06:23:45;;;;;;;;;;;7.50;99.90;;;;;;5094673;28;20092;-76
2021/11/18 06:26:13;;;;;;;;;;;7.50;99.90;;;;;;5082517;28;19912;-76
2021/11/18 06:28:39;;;;;;;;;;;7.50;99.90;;;;;;5079673;28;19916;-76
2021/11/18 06:31:07;;;;;;;;;;;7.50;99.90;;;;;;5092014;28;19916;-75
2021/11/18 06:33:32;;;;;;;;;;;7.50;99.90;;;;;;5088318;28;20268;-76
2021/11/18 06:35:58;;;;;;;;;;;7.40;99.90;;;;;;5090516;28;19968;-76
2021/11/18 06:38:24;;;;;;;;;;;7.40;99.90;;;;;;5091761;28;20048;-76
2021/11/18 06:40:50;;;;;;;;;;;7.40;99.90;;;;;;5088606;28;19958;-76
2021/11/18 06:43:15;;;;;;;;;;;7.50;99.90;;;;;;5091414;28;19924;-76
2021/11/18 06:45:44;;;;;;;;;;;7.40;99.90;;;;;;5092369;28;19912;-76
2021/11/18 06:48:10;;;;;;;;;;;7.40;99.90;;;;;;5088918;28;19916;-76
2021/11/18 06:50:36;;;;;;;;;;;7.40;99.90;;;;;;5094898;28;19919;-76
2021/11/18 06:53:02;;;;;;;;;;;7.50;99.90;;;;;;5095271;28;19918;-85
2021/11/18 06:55:28;;;;;;;;;;;7.50;99.90;;;;;;5094007;28;19968;-76
2021/11/18 06:57:53;;;;;;;;;;;7.50;99.90;;;;;;5093293;28;19998;-76
2021/11/18 07:00:19;;;;;;;;;;;7.50;99.90;;;;;;5092937;28;19916;-76
2021/11/18 07:02:45;;;;;;;;;;;7.50;99.90;;;;;;5092899;28;19916;-75
2021/11/18 07:05:11;;;;;;;;;;;7.50;99.90;;;;;;5089780;28;19935;-76
2021/11/18 07:07:36;;;;;;;;;;;7.50;99.90;;;;;;5092080;28;19923;-77
2021/11/18 07:10:03;;;;;;;;;;;7.50;99.90;;;;;;5088697;28;19912;-85
2021/11/18 07:12:29;;;;;;;;;;;7.50;99.90;;;;;;5092969;28;19916;-76
2021/11/18 07:14:55;;;;;;;;;;;7.50;99.90;;;;;;5093366;28;19927;-76
2021/11/18 07:17:21;;;;;;;;;;;7.50;99.90;;;;;;5088071;28;19916;-76
2021/11/18 07:19:47;;;;;;;;;;;7.50;99.90;;;;;;5106301;28;19946;-76
2021/11/18 07:22:13;;;;;;;;;;;7.50;99.90;;;;;;5091886;28;19970;-76
2021/11/18 07:24:38;;;;;;;;;;;7.50;99.90;;;;;;5090773;28;19999;-76
2021/11/18 07:27:04;;;;;;;;;;;7.50;99.90;;;;;;5077343;28;21600;-75
2021/11/18 07:29:30;;;;;;;;;;;7.50;99.90;;;;;;5083928;28;19916;-75
2021/11/18 07:31:55;;;;;;;;;;;7.40;99.90;;;;;;5082015;28;20261;-75
2021/11/18 07:34:21;;;;;;;;;;;7.50;99.90;;;;;;5092935;28;19919;-83
2021/11/18 07:36:47;;;;;;;;;;;7.50;99.90;;;;;;5093486;28;20214;-75
2021/11/18 07:39:13;;;;;;;;;;;7.50;99.90;;;;;;5092827;28;19951;-76
2021/11/18 07:41:39;;;;;;;;;;;7.50;99.90;;;;;;5089078;28;19964;-75
2021/11/18 07:44:07;;;;;;;;;;;7.50;99.90;;;;;;5119224;28;19913;-76
2021/11/18 07:46:32;;;;;;;;;;;7.60;99.90;;;;;;5087967;28;19959;-75
2021/11/18 07:48:58;;;;;;;;;;;7.50;99.90;;;;;;5090131;28;20073;-75
2021/11/18 07:51:24;;;;;;;;;;;7.60;99.90;;;;;;5086844;28;19912;-86
2021/11/18 07:53:50;;;;;;;;;;;7.60;99.90;;;;;;5089639;28;20013;-76
2021/11/18 07:56:17;;;;;;;;;;;7.70;99.90;;;;;;5081518;28;19920;-76
2021/11/18 07:58:42;;;;;;;;;;;7.70;99.90;;;;;;5094223;28;20275;-75
2021/11/18 08:01:08;;;;;;;;;;;7.80;99.90;;;;;;5085255;28;19962;-76
2021/11/18 08:03:34;;;;;;;;;;;7.80;99.90;;;;;;5093123;28;19919;-75
2021/11/18 08:06:00;;;;;;;;;;;7.80;99.90;;;;;;5088866;28;19957;-75
2021/11/18 08:08:26;;;;;;;;;;;7.80;99.90;;;;;;5095687;28;20273;-77
2021/11/18 08:10:52;;;;;;;;;;;7.80;99.90;;;;;;5091690;28;20010;-75
2021/11/18 08:13:17;;;;;;;;;;;7.80;99.90;;;;;;5093271;28;20015;-74
2021/11/18 08:15:43;;;;;;;;;;;7.90;99.90;;;;;;5087839;28;19916;-75
2021/11/18 08:18:08;;;;;;;;;;;7.90;99.90;;;;;;5097013;28;19958;-75
2021/11/18 08:20:34;;;;;;;;;;;7.90;99.90;;;;;;5096964;28;19916;-75
2021/11/18 08:23:00;;;;;;;;;;;8.00;99.90;;;;;;5095008;28;19919;-83
2021/11/18 08:25:27;;;;;;;;;;;8.00;99.90;;;;;;5074456;28;19912;-75
2021/11/18 08:27:53;;;;;;;;;;;8.00;99.90;;;;;;5095972;28;20260;-75
2021/11/18 08:30:20;;;;;;;;;;;8.00;99.90;;;;;;5081109;28;19912;-76
2021/11/18 08:32:47;;;;;;;;;;;8.10;99.90;;;;;;5093139;28;19915;-75
2021/11/18 08:35:14;;;;;;;;;;;8.10;99.90;;;;;;5083549;28;20234;-84
2021/11/18 08:37:40;;;;;;;;;;;8.10;99.90;;;;;;5097368;28;19920;-75
2021/11/18 08:40:06;;;;;;;;;;;8.10;99.90;;;;;;5095875;28;19985;-75
2021/11/18 08:42:32;;;;;;;;;;;8.10;99.90;;;;;;5089103;28;19963;-75
2021/11/18 08:44:58;;;;;;;;;;;8.20;99.90;;;;;;5095234;28;19920;-75
2021/11/18 08:47:23;;;;;;;;;;;8.30;99.90;;;;;;5095643;28;19951;-75
2021/11/18 08:49:49;;;;;;;;;;;8.30;99.90;;;;;;5109878;28;19913;-75
2021/11/18 08:52:18;;;;;;;;;;;8.40;99.90;;;;;;5097153;28;19916;-75
2021/11/18 08:54:46;;;;;;;;;;;8.40;99.90;;;;;;5091805;28;19958;-75
2021/11/18 08:57:13;;;;;;;;;;;8.50;99.90;;;;;;5075071;28;19920;-75
2021/11/18 08:59:38;;;;;;;;;;;8.50;99.90;;;;;;5098135;28;19923;-76
2021/11/18 09:02:09;;;;;;;;;;;8.60;99.90;;;;;;5095771;28;19912;-81
2021/11/18 09:04:34;;;;;;;;;;;8.60;99.90;;;;;;5093390;28;19927;-75
2021/11/18 09:07:00;;;;;;;;;;;8.70;99.90;;;;;;5089197;28;20218;-75
2021/11/18 09:09:26;;;;;;;;;;;8.80;99.90;;;;;;5096635;28;19923;-76
2021/11/18 09:11:53;;;;;;;;;;;8.90;99.90;;;;;;5093937;28;19913;-75
2021/11/18 09:14:19;;;;;;;;;;;8.90;99.90;;;;;;5095705;28;20014;-75
2021/11/18 09:16:45;;;;;;;;;;;9.00;99.90;;;;;;5090208;28;20219;-75
2021/11/18 09:19:14;;;;;;;;;;;8.90;99.90;;;;;;5095992;28;19913;-76
2021/11/18 09:21:40;;;;;;;;;;;8.90;99.90;;;;;;5094878;28;19989;-76
2021/11/18 09:24:08;;;;;;;;;;;8.90;99.90;;;;;;5094213;28;19912;-76
2021/11/18 09:26:35;;;;;;;;;;;9.00;99.90;;;;;;5093667;28;19913;-75
2021/11/18 09:29:01;;;;;;;;;;;9.10;99.90;;;;;;5094535;28;20261;-78
2021/11/18 09:31:27;;;;;;;;;;;9.10;99.90;;;;;;5090864;28;19913;-75
2021/11/18 09:33:53;;;;;;;;;;;9.20;99.90;;;;;;5094465;28;20196;-83
2021/11/18 09:36:20;;;;;;;;;;;9.20;99.90;;;;;;5083922;28;19912;-75
2021/11/18 09:38:46;;;;;;;;;;;9.30;99.90;;;;;;5097554;28;19962;-76
2021/11/18 09:41:12;;;;;;;;;;;9.40;99.90;;;;;;5082543;28;20227;-75
2021/11/18 09:43:47;;;;;;;;;;;9.50;99.90;;;;;;5096051;28;19916;-78
2021/11/18 09:46:22;;;;;;;;;;;9.50;99.90;;;;;;5092367;28;19916;-76
2021/11/18 09:49:03;;;;;;;;;;;9.50;99.90;;;;;;5092892;28;19931;-78
2021/11/18 09:51:37;;;;;;;;;;;9.50;99.90;;;;;;5093058;28;20004;-76
2021/11/18 09:54:03;;;;;;;;;;;9.50;99.90;;;;;;5093140;28;19999;-75
2021/11/18 09:56:36;;;;;;;;;;;9.60;99.90;;;;;;5094298;28;20015;-78
2021/11/18 09:59:02;;;;;;;;;;;9.70;99.90;;;;;;5095359;28;19920;-76
2021/11/18 10:01:27;;;;;;;;;;;9.80;99.90;;;;;;5088140;28;19920;-76
2021/11/18 10:04:11;;;;;;;;;;;9.90;99.90;;;;;;5090334;28;19916;-81
2021/11/18 10:06:38;;;;;;;;;;;9.90;99.90;;;;;;5092637;28;20310;-76
2021/11/18 10:09:24;;;;;;;;;;;10.00;99.90;;;;;;5094170;28;20210;-76
2021/11/18 10:11:59;;;;;;;;;;;10.10;99.90;;;;;;5093455;28;19922;-76
2021/11/18 10:14:35;;;;;;;;;;;10.20;99.90;;;;;;5094630;28;19916;-77
2021/11/18 10:17:14;;;;;;;;;;;10.20;99.90;;;;;;5087651;28;20313;-76
2021/11/18 10:19:42;;;;;;;;;;;10.30;99.90;;;;;;5093595;28;19912;-76
2021/11/18 10:22:10;;;;;;;;;;;10.30;99.90;;;;;;5119715;27;19917;-78
2021/11/18 10:24:38;;;;;;;;;;;10.40;99.90;;;;;;5089148;28;19966;-76
2021/11/18 10:27:12;;;;;;;;;;;10.40;99.90;;;;;;5093858;28;20014;-77
2021/11/18 10:30:04;;;;;;;;;;;10.40;99.90;;;;;;5094775;28;19920;-76
2021/11/18 10:32:32;;;;;;;;;;;10.50;99.90;;;;;;5091094;28;19912;-76
2021/11/18 10:35:07;;;;;;;;;;;10.60;99.90;;;;;;5092872;28;19935;-76
2021/11/18 10:37:35;;;;;;;;;;;10.70;99.90;;;;;;5089208;28;19936;-76
2021/11/18 10:40:04;;;;;;;;;;;10.80;99.90;;;;;;5092214;28;19919;-77
2021/11/18 10:42:59;;;;;;;;;;;10.90;99.90;;;;;;5083083;28;20299;-76
2021/11/18 10:45:24;;;;;;;;;;;10.90;99.90;;;;;;5097402;27;19919;-77
2021/11/18 10:47:50;;;;;;;;;;;10.90;99.90;;;;;;5094245;28;20218;-75
2021/11/18 10:50:32;;;;;;;;;;;10.90;99.90;;;;;;5095081;28;19912;-77
2021/11/18 10:53:06;;;;;;;;;;;10.90;99.90;;;;;;5107407;28;20335;-76
2021/11/18 10:55:37;;;;;;;;;;;10.80;99.90;;;;;;5091188;28;19943;-76
2021/11/18 10:58:05;;;;;;;;;;;10.90;99.90;;;;;;5104688;28;19917;-76
2021/11/18 11:00:40;;;;;;;;;;;10.90;99.90;;;;;;5094038;28;19988;-87
2021/11/18 11:03:20;;;;;;;;;;;11.00;99.90;;;;;;5093910;28;19908;-76
2021/11/18 11:05:45;;;;;;;;;;;11.10;99.90;;;;;;5095574;28;19941;-77
2021/11/18 11:08:22;;;;;;;;;;;11.10;99.90;;;;;;5094055;28;19916;-76
2021/11/18 11:10:50;;;;;;;;;;;11.20;99.90;;;;;;5092815;28;20191;-75
2021/11/18 11:13:23;;;;;;;;;;;11.20;99.90;;;;;;5084260;28;19912;-78
2021/11/18 11:15:49;;;;;;;;;;;11.20;99.90;;;;;;5093671;28;19919;-75
2021/11/18 11:18:20;;;;;;;;;;;11.30;99.90;;;;;;5082125;28;19912;-75
2021/11/18 11:20:51;;;;;;;;;;;11.30;99.90;;;;;;5094732;28;20322;-77
2021/11/18 11:23:33;;;;;;;;;;;11.30;99.90;;;;;;5091436;28;19962;-76
2021/11/18 11:26:22;;;;;;;;;;;11.40;99.90;;;;;;5088917;28;19955;-76
2021/11/18 11:28:51;;;;;;;;;;;11.60;99.90;;;;;;5096365;28;19956;-76
2021/11/18 11:31:24;;;;;;;;;;;11.60;99.90;;;;;;5081737;28;19919;-77
2021/11/18 11:33:52;;;;;;;;;;;11.70;99.90;;;;;;5089695;28;19916;-77
2021/11/18 11:36:23;;;;;;;;;;;11.80;99.90;;;;;;5090824;28;20306;-76
2021/11/18 11:38:58;;;;;;;;;;;11.90;99.90;;;;;;5091836;28;19927;-89
2021/11/18 11:41:42;;;;;;;;;;;11.90;99.90;;;;;;5086190;28;19951;-76
2021/11/18 11:44:13;;;;;;;;;;;11.90;99.90;;;;;;5087159;28;19961;-77
2021/11/18 11:46:39;;;;;;;;;;;11.90;99.90;;;;;;5083546;28;19916;-76
2021/11/18 11:49:04;;;;;;;;;;;12.00;99.90;;;;;;5090718;28;20071;-84
2021/11/18 11:51:33;;;;;;;;;;;12.10;99.90;;;;;;5094438;28;19908;-77
2021/11/18 11:53:59;;;;;;;;;;;12.10;99.90;;;;;;5091424;28;20195;-76
2021/11/18 11:56:30;;;;;;;;;;;12.10;99.90;;;;;;5101253;28;19945;-77
2021/11/18 11:59:02;;;;;;;;;;;12.10;99.90;;;;;;5089778;28;19951;-77
2021/11/18 12:01:39;;;;;;;;;;;12.10;99.90;;;;;;5088470;28;19912;-77
2021/11/18 12:04:09;;;;;;;;;;;12.00;99.90;;;;;;5096349;28;19951;-77
2021/11/18 12:06:41;;;;;;;;;;;12.00;99.90;;;;;;5094111;28;19916;-78
2021/11/18 12:09:14;;;;;;;;;;;12.00;99.90;;;;;;5083144;28;20313;-77
2021/11/18 12:11:48;;;;;;;;;;;12.10;99.90;;;;;;5096089;28;19947;-77
2021/11/18 12:14:27;;;;;;;;;;;12.00;99.90;;;;;;5099996;28;19916;-76
2021/11/18 12:16:58;;;;;;;;;;;11.90;99.90;;;;;;5085136;28;19922;-76
2021/11/18 12:19:37;;;;;;;;;;;12.00;99.90;;;;;;5096983;28;19913;-80
2021/11/18 12:22:24;;;;;;;;;;;12.10;99.90;;;;;;5092250;28;19920;-76
2021/11/18 12:25:08;;;;;;;;;;;12.20;99.90;;;;;;5105507;28;19974;-76
2021/11/18 12:27:36;;;;;;;;;;;12.20;99.90;;;;;;5089446;28;19912;-83
2021/11/18 12:30:40;;;;;;;;;;;12.20;99.90;;;;;;5095380;28;19928;-77
2021/11/18 12:33:07;;;;;;;;;;;12.20;99.90;;;;;;5111529;28;19924;-76
2021/11/18 12:35:33;;;;;;;;;;;12.00;99.90;;;;;;5094878;28;19923;-77
2021/11/18 12:38:01;;;;;;;;;;;12.00;99.90;;;;;;5091199;28;19920;-76
2021/11/18 12:40:32;;;;;;;;;;;12.00;99.90;;;;;;5089983;28;20310;-76
2021/11/18 12:43:10;;;;;;;;;;;11.80;99.90;;;;;;5094612;28;19923;-77
2021/11/18 12:45:43;;;;;;;;;;;11.80;99.90;;;;;;5090910;28;19958;-75
2021/11/18 12:48:13;;;;;;;;;;;11.80;99.90;;;;;;5103049;28;19924;-76
2021/11/18 12:50:58;;;;;;;;;;;11.80;99.90;;;;;;5089314;28;19927;-77
2021/11/18 12:53:30;;;;;;;;;;;11.80;99.90;;;;;;5089945;28;20011;-77
2021/11/18 12:56:07;;;;;;;;;;;11.80;99.90;;;;;;5090415;28;19920;-76
2021/11/18 12:58:32;;;;;;;;;;;11.70;99.90;;;;;;5092295;28;19916;-77
2021/11/18 13:01:01;;;;;;;;;;;11.70;99.90;;;;;;5092467;28;19931;-77
2021/11/18 13:03:47;;;;;;;;;;;11.70;99.90;;;;;;5090302;28;19931;-77
2021/11/18 13:06:38;;;;;;;;;;;11.70;99.90;;;;;;5103688;27;20010;-77
2021/11/18 13:09:05;;;;;;;;;;;11.70;99.90;;;;;;5093599;28;19923;-77
2021/11/18 13:11:40;;;;;;;;;;;11.80;99.90;;;;;;5091181;28;20375;-77
2021/11/18 13:14:09;;;;;;;;;;;11.70;99.90;;;;;;5090154;28;19919;-76
2021/11/18 13:16:55;;;;;;;;;;;11.70;99.90;;;;;;5084998;28;19912;-77
2021/11/18 13:19:53;;;;;;;;;;;11.70;99.90;;;;;;5088961;28;20011;-88
2021/11/18 13:22:26;;;;;;;;;;;11.80;99.90;;;;;;5082992;28;20338;-76
2021/11/18 13:24:56;;;;;;;;;;;11.80;99.90;;;;;;5081821;28;19908;-76
2021/11/18 13:27:27;;;;;;;;;;;11.70;99.90;;;;;;5095563;28;19923;-77
2021/11/18 13:29:55;;;;;;;;;;;11.60;99.90;;;;;;5090483;28;19912;-85
2021/11/18 13:32:23;;;;;;;;;;;11.60;99.90;;;;;;5102168;28;19912;-77
2021/11/18 13:34:54;;;;;;;;;;;11.60;99.90;;;;;;5090452;28;19965;-76
2021/11/18 13:37:22;;;;;;;;;;;11.60;99.90;;;;;;5092643;28;19921;-76
2021/11/18 13:39:51;;;;;;;;;;;11.60;99.90;;;;;;5095275;28;19923;-76
2021/11/18 13:42:19;;;;;;;;;;;11.70;99.90;;;;;;5095333;28;19916;-78
2021/11/18 13:44:49;;;;;;;;;;;11.70;99.90;;;;;;5089334;28;19943;-77
2021/11/18 13:47:26;;;;;;;;;;;11.70;99.90;;;;;;5097491;28;19916;-79
2021/11/18 13:49:53;;;;;;;;;;;11.70;99.90;;;;;;5092791;28;19920;-77
2021/11/18 13:52:25;;;;;;;;;;;11.70;99.90;;;;;;5090561;28;19935;-77
2021/11/18 13:54:51;;;;;;;;;;;11.60;99.90;;;;;;5091394;28;19912;-77
2021/11/18 13:57:19;;;;;;;;;;;11.60;99.90;;;;;;5089021;28;19919;-77
2021/11/18 13:59:50;;;;;;;;;;;11.60;99.90;;;;;;5084429;28;19916;-77
2021/11/18 14:02:16;;;;;;;;;;;11.60;99.90;;;;;;5096365;28;19927;-77
2021/11/18 14:04:41;;;;;;;;;;;11.60;99.90;;;;;;5091037;28;19912;-77
2021/11/18 14:07:07;;;;;;;;;;;11.50;99.90;;;;;;5095242;28;19922;-77
2021/11/18 14:09:39;;;;;;;;;;;11.50;99.90;;;;;;5090743;28;19927;-78
2021/11/18 14:12:14;;;;;;;;;;;11.50;99.90;;;;;;5090651;28;19912;-76
2021/11/18 14:14:42;;;;;;;;;;;11.50;99.90;;;;;;5087588;28;19961;-78
2021/11/18 14:17:12;;;;;;;;;;;11.50;99.90;;;;;;5090254;28;19926;-76
2021/11/18 14:19:40;;;;;;;;;;;11.50;99.90;;;;;;5083641;28;20309;-78
2021/11/18 14:22:10;;;;;;;;;;;11.50;99.90;;;;;;5093833;28;19920;-79
2021/11/18 14:24:35;;;;;;;;;;;11.50;99.90;;;;;;5091496;28;19913;-77
2021/11/18 14:27:24;;;;;;;;;;;11.60;99.90;;;;;;5096599;28;19919;-77
2021/11/18 14:30:05;;;;;;;;;;;11.50;99.90;;;;;;5082413;28;20293;-77
2021/11/18 14:32:34;;;;;;;;;;;11.50;99.90;;;;;;5087771;28;19942;-76